Time;durP1;ratioP1;P1;durP2;ratioP2;P2;SDS_P1;SDS_P2;PMS_P1;PMS_P2;Temp;Humidity;BMP_temperature;BMP_pressure;BME280_temperature;BME280_humidity;BME280_pressure;Samples;Min_cycle;Max_cycle;Signal;HPM_P1;HPM_P2
2022/12/29 00:01:37;;;;;;;;;;;;;;;22.47;18.36;98153.19;4994652;28;19953;-87
2022/12/29 00:04:03;;;;;;;;;;;;;;;22.51;18.22;98153.94;4994558;28;19976;-87
2022/12/29 00:06:30;;;;;;;;;;;;;;;22.45;18.21;98166.81;4994342;28;19917;-86
2022/12/29 00:08:56;;;;;;;;;;;;;;;22.50;18.56;98153.13;4994315;28;20445;-87
2022/12/29 00:11:24;;;;;;;;;;;;;;;22.91;18.65;98160.53;4972952;28;20017;-87
2022/12/29 00:16:35;;;;;;;;;;;;;;;22.62;18.81;98151.78;4975385;28;20347;-87
2022/12/29 00:19:02;;;;;;;;;;;;;;;22.68;18.06;98153.69;4986026;28;19921;-87
2022/12/29 00:35:33;;;;;;;;;;;;;;;22.96;18.08;98154.47;4978029;28;19981;-87
2022/12/29 00:46:15;;;;;;;;;;;;;;;22.74;18.30;98147.59;4978816;28;19925;-87
2022/12/29 00:51:26;;;;;;;;;;;;;;;22.44;19.01;98160.41;4978160;28;20013;-87
2022/12/29 00:53:52;;;;;;;;;;;;;;;22.68;18.66;98156.47;4978450;28;20374;-87
2022/12/29 00:56:18;;;;;;;;;;;;;;;22.44;18.75;98149.22;4978439;28;20061;-87
2022/12/29 00:58:44;;;;;;;;;;;;;;;22.62;18.83;98146.19;4981586;28;19918;-87
2022/12/29 01:01:10;;;;;;;;;;;;;;;22.75;18.26;98147.22;4980981;28;19922;-87
2022/12/29 01:03:37;;;;;;;;;;;;;;;22.92;18.56;98151.72;4978385;28;19922;-88
2022/12/29 01:06:04;;;;;;;;;;;;;;;22.61;18.80;98150.22;4978157;28;19919;-87
2022/12/29 01:08:30;;;;;;;;;;;;;;;22.45;18.58;98144.44;4978129;28;19923;-87
2022/12/29 01:11:02;;;;;;;;;;;;;;;22.05;19.56;98162.16;4978169;28;19922;-88
2022/12/29 01:13:28;;;;;;;;;;;;;;;22.06;19.52;98156.13;4978109;28;19933;-87
2022/12/29 01:15:55;;;;;;;;;;;;;;;22.72;19.07;98152.84;4978067;28;19918;-87
2022/12/29 01:18:21;;;;;;;;;;;;;;;22.68;18.50;98153.69;4980058;28;19926;-88
2022/12/29 01:20:47;;;;;;;;;;;;;;;21.93;19.84;98146.72;4978059;28;19918;-88
2022/12/29 01:23:14;;;;;;;;;;;;;;;21.76;19.96;98144.88;4981760;28;19922;-88
2022/12/29 01:25:40;;;;;;;;;;;;;;;22.61;19.24;98133.44;4981261;28;19965;-88
2022/12/29 01:28:08;;;;;;;;;;;;;;;23.03;18.52;98127.16;4995107;28;19921;-88
2022/12/29 01:30:34;;;;;;;;;;;;;;;23.08;18.63;98123.84;4997429;28;20270;-88
2022/12/29 01:33:00;;;;;;;;;;;;;;;22.88;18.73;98120.19;4997062;28;19918;-88
2022/12/29 01:35:27;;;;;;;;;;;;;;;23.11;18.35;98117.38;4991832;28;19929;-88
2022/12/29 01:37:53;;;;;;;;;;;;;;;22.70;19.07;98111.28;4977736;28;20393;-88
2022/12/29 01:40:19;;;;;;;;;;;;;;;22.89;19.38;98116.19;4977774;28;19922;-88
2022/12/29 01:42:45;;;;;;;;;;;;;;;22.25;19.43;98113.53;4977668;28;19969;-88
2022/12/29 01:45:12;;;;;;;;;;;;;;;22.27;19.81;98105.50;4977383;28;19922;-88
2022/12/29 01:47:41;;;;;;;;;;;;;;;22.22;19.59;98105.19;4975705;28;19922;-88
2022/12/29 01:50:18;;;;;;;;;;;;;;;21.99;19.94;98111.47;4960177;28;19918;-88
2022/12/29 01:52:51;;;;;;;;;;;;;;;21.90;20.23;98100.03;4977627;28;19941;-88
2022/12/29 01:55:17;;;;;;;;;;;;;;;22.06;20.25;98105.78;4977476;28;19922;-88
2022/12/29 01:57:45;;;;;;;;;;;;;;;21.53;20.31;98119.59;4978040;28;19972;-88
2022/12/29 02:00:13;;;;;;;;;;;;;;;22.32;19.50;98118.22;4996792;28;19917;-88
2022/12/29 02:02:42;;;;;;;;;;;;;;;22.67;19.28;98117.72;4996735;28;19917;-89
2022/12/29 02:05:14;;;;;;;;;;;;;;;23.11;19.01;98120.19;4996800;28;19918;-89
2022/12/29 02:07:41;;;;;;;;;;;;;;;23.78;18.34;98118.19;4996580;28;19918;-89
2022/12/29 02:10:07;;;;;;;;;;;;;;;24.03;18.57;98116.44;4979276;28;19989;-89
2022/12/29 02:12:33;;;;;;;;;;;;;;;24.16;18.09;98105.38;4976933;28;20013;-89
2022/12/29 02:15:01;;;;;;;;;;;;;;;24.36;18.31;98103.34;4977311;28;19961;-89
2022/12/29 02:17:42;;;;;;;;;;;;;;;24.42;17.35;98095.16;4976242;28;19924;-90
2022/12/29 02:20:11;;;;;;;;;;;;;;;24.04;17.82;98097.59;4996500;28;20382;-89
2022/12/29 02:22:43;;;;;;;;;;;;;;;23.74;18.80;98095.81;4996554;28;19969;-89
2022/12/29 02:25:27;;;;;;;;;;;;;;;23.99;18.43;98095.31;4977566;28;20290;-89
2022/12/29 02:28:14;;;;;;;;;;;;;;;24.18;17.83;98088.13;4962668;28;19977;-89
2022/12/29 02:30:40;;;;;;;;;;;;;;;24.18;18.29;98083.28;4966007;28;20404;-89
2022/12/29 02:33:24;;;;;;;;;;;;;;;24.40;18.09;98075.97;4976581;28;19981;-89
2022/12/29 02:36:09;;;;;;;;;;;;;;;24.53;17.68;98076.06;4976781;28;19918;-89
2022/12/29 02:38:50;;;;;;;;;;;;;;;24.07;18.11;98065.09;4976756;28;20282;-89
2022/12/29 02:41:19;;;;;;;;;;;;;;;23.41;19.06;98066.03;4976801;28;19922;-89
2022/12/29 02:43:50;;;;;;;;;;;;;;;23.25;19.67;98065.91;4984191;28;20381;-89
2022/12/29 02:46:27;;;;;;;;;;;;;;;22.93;19.60;98062.91;4976826;28;20305;-89
2022/12/29 02:49:07;;;;;;;;;;;;;;;23.45;19.46;98051.97;4976712;28;19958;-90
2022/12/29 02:51:37;;;;;;;;;;;;;;;23.93;18.71;98057.75;4976432;28;19926;-89
2022/12/29 02:56:48;;;;;;;;;;;;;;;24.09;18.56;98057.84;4976194;28;19925;-89
2022/12/29 02:59:14;;;;;;;;;;;;;;;24.13;18.69;98054.97;4977912;28;19922;-90
2022/12/29 03:02:18;;;;;;;;;;;;;;;24.28;18.62;98050.59;4995554;28;19918;-90
2022/12/29 03:04:50;;;;;;;;;;;;;;;24.01;18.73;98059.19;4978204;28;19922;-89
2022/12/29 03:07:36;;;;;;;;;;;;;;;24.37;18.74;98057.19;4995661;28;20385;-89
2022/12/29 03:10:15;;;;;;;;;;;;;;;24.52;18.30;98055.63;4995263;28;19922;-90
2022/12/29 03:16:05;;;;;;;;;;;;;;;24.42;17.50;98048.25;4995216;28;19928;-89
2022/12/29 03:18:40;;;;;;;;;;;;;;;24.19;18.64;98039.19;4982078;28;20425;-90
2022/12/29 03:21:12;;;;;;;;;;;;;;;23.60;19.11;98036.44;4976111;28;19922;-90
2022/12/29 03:23:40;;;;;;;;;;;;;;;23.66;18.89;98034.72;4976067;28;19918;-91
2022/12/29 03:26:08;;;;;;;;;;;;;;;24.05;18.79;98029.84;4980647;28;19973;-91
2022/12/29 03:28:52;;;;;;;;;;;;;;;24.23;17.89;98018.25;4975822;28;19918;-90
2022/12/29 03:31:19;;;;;;;;;;;;;;;24.37;17.49;98033.94;4975711;28;19918;-91
2022/12/29 03:33:46;;;;;;;;;;;;;;;23.52;18.52;98026.63;4982183;28;19924;-91
2022/12/29 03:36:17;;;;;;;;;;;;;;;23.12;18.89;98029.38;4976267;28;19941;-91
2022/12/29 03:38:43;;;;;;;;;;;;;;;23.31;18.38;98027.81;4975913;28;19925;-90
2022/12/29 03:41:13;;;;;;;;;;;;;;;23.73;18.62;98026.97;4975699;28;20286;-91
2022/12/29 03:43:39;;;;;;;;;;;;;;;24.32;18.16;98026.84;4975406;28;19929;-89
2022/12/29 03:46:05;;;;;;;;;;;;;;;24.36;17.75;98038.00;4975645;28;19922;-89
2022/12/29 03:48:32;;;;;;;;;;;;;;;23.94;18.50;98034.13;4975794;28;19941;-89
2022/12/29 03:50:58;;;;;;;;;;;;;;;23.87;18.53;98015.44;4975639;28;19919;-89
2022/12/29 03:53:24;;;;;;;;;;;;;;;24.03;18.78;98023.88;4990349;28;19925;-90
2022/12/29 03:55:50;;;;;;;;;;;;;;;24.14;17.92;98026.47;4975452;28;19918;-89
2022/12/29 03:58:16;;;;;;;;;;;;;;;24.55;17.99;98031.53;4978379;28;20406;-89
2022/12/29 04:00:42;;;;;;;;;;;;;;;24.50;17.90;98035.63;4994911;28;19922;-89
2022/12/29 04:03:08;;;;;;;;;;;;;;;24.64;17.45;98043.69;4994532;28;19925;-89
2022/12/29 04:05:34;;;;;;;;;;;;;;;24.83;17.37;98036.47;4994653;28;19918;-89
2022/12/29 04:08:00;;;;;;;;;;;;;;;24.84;17.62;98035.22;4986931;28;20001;-89
2022/12/29 04:10:26;;;;;;;;;;;;;;;24.67;17.62;98034.41;4994194;28;19957;-90
2022/12/29 04:12:52;;;;;;;;;;;;;;;24.57;17.82;98043.88;4994320;28;20032;-90
2022/12/29 04:15:18;;;;;;;;;;;;;;;24.40;18.45;98042.28;4994741;28;19918;-90
2022/12/29 04:17:44;;;;;;;;;;;;;;;23.71;18.14;98046.19;4994368;28;19918;-90
2022/12/29 04:23:05;;;;;;;;;;;;;;;23.67;18.26;98051.09;4994610;28;19924;-90
2022/12/29 04:25:31;;;;;;;;;;;;;;;23.80;19.13;98056.84;4981403;28;19984;-90
2022/12/29 04:27:57;;;;;;;;;;;;;;;24.14;18.36;98051.72;4974824;28;19973;-90
2022/12/29 04:30:23;;;;;;;;;;;;;;;24.32;17.79;98049.28;4975213;28;19966;-90
2022/12/29 04:32:49;;;;;;;;;;;;;;;24.20;17.47;98037.97;4974908;28;19922;-90
2022/12/29 04:35:15;;;;;;;;;;;;;;;24.23;18.14;98043.50;4975097;28;19918;-90
2022/12/29 04:37:42;;;;;;;;;;;;;;;23.91;17.96;98044.19;4975222;28;19914;-91
2022/12/29 04:40:08;;;;;;;;;;;;;;;23.49;18.56;98042.28;4974832;28;19957;-90
2022/12/29 04:42:34;;;;;;;;;;;;;;;23.35;19.42;98039.75;4981797;28;19914;-90
2022/12/29 04:45:00;;;;;;;;;;;;;;;23.71;19.10;98042.63;4974959;28;19918;-90
2022/12/29 04:47:26;;;;;;;;;;;;;;;23.87;18.45;98026.66;4974986;28;19981;-91
2022/12/29 04:49:52;;;;;;;;;;;;;;;23.70;18.31;98024.22;4974760;28;19921;-90
2022/12/29 04:52:18;;;;;;;;;;;;;;;23.19;19.14;98034.84;4974919;28;19918;-90
2022/12/29 04:54:44;;;;;;;;;;;;;;;23.27;18.91;98025.06;4957453;28;20302;-89
2022/12/29 04:57:10;;;;;;;;;;;;;;;23.19;18.86;98025.63;4974611;28;19918;-90
2022/12/29 04:59:36;;;;;;;;;;;;;;;22.95;18.60;98026.88;4980877;28;20132;-90
2022/12/29 05:02:02;;;;;;;;;;;;;;;22.89;18.69;98037.00;4994100;28;20037;-90
2022/12/29 05:04:28;;;;;;;;;;;;;;;22.96;18.21;98028.47;4994526;28;20068;-90
2022/12/29 05:06:54;;;;;;;;;;;;;;;22.79;18.32;98033.16;4994024;28;20486;-90
2022/12/29 05:09:20;;;;;;;;;;;;;;;22.71;18.71;98028.91;4994107;28;20025;-91
2022/12/29 05:11:46;;;;;;;;;;;;;;;22.61;19.01;98021.50;4993988;28;20092;-90
2022/12/29 05:14:12;;;;;;;;;;;;;;;22.87;18.54;98019.84;4976655;28;19953;-90
2022/12/29 05:16:38;;;;;;;;;;;;;;;22.98;18.58;98026.03;4980185;28;19926;-90
2022/12/29 05:19:04;;;;;;;;;;;;;;;23.17;18.71;98014.88;4975006;28;19918;-90
2022/12/29 05:21:30;;;;;;;;;;;;;;;23.27;18.70;98004.66;4976136;28;20016;-90
2022/12/29 05:23:56;;;;;;;;;;;;;;;22.98;18.84;98021.22;4978876;28;20045;-90
2022/12/29 05:26:22;;;;;;;;;;;;;;;22.82;18.95;98023.13;4991650;28;20001;-90
2022/12/29 05:28:48;;;;;;;;;;;;;;;22.94;18.74;98014.13;5014467;28;19922;-90
2022/12/29 05:31:14;;;;;;;;;;;;;;;23.25;18.52;98005.09;4996472;28;20080;-90
2022/12/29 05:33:40;;;;;;;;;;;;;;;23.39;18.50;98009.63;4990266;28;20020;-90
2022/12/29 05:36:08;;;;;;;;;;;;;;;22.83;18.72;98017.09;4977926;28;19969;-90
2022/12/29 05:38:34;;;;;;;;;;;;;;;23.01;18.25;98011.94;4977693;28;19918;-89
2022/12/29 05:41:00;;;;;;;;;;;;;;;23.32;18.74;98007.75;4978059;28;19918;-90
2022/12/29 05:43:26;;;;;;;;;;;;;;;23.20;18.03;97996.38;4996383;28;20340;-89
2022/12/29 05:45:53;;;;;;;;;;;;;;;23.02;19.11;98002.34;4997365;28;19918;-89
2022/12/29 05:48:19;;;;;;;;;;;;;;;22.73;18.39;97998.50;4997303;28;19918;-89
2022/12/29 05:50:49;;;;;;;;;;;;;;;22.43;19.11;97990.97;4982865;28;19918;-88
2022/12/29 05:53:15;;;;;;;;;;;;;;;22.18;19.22;97992.56;4979353;28;19922;-89
2022/12/29 05:55:42;;;;;;;;;;;;;;;22.44;19.31;97995.34;4997248;28;20009;-89
2022/12/29 05:58:08;;;;;;;;;;;;;;;22.69;18.69;97995.75;4996550;28;19917;-89
2022/12/29 06:00:34;;;;;;;;;;;;;;;22.65;18.71;98002.63;4997009;28;19925;-89
2022/12/29 06:03:00;;;;;;;;;;;;;;;22.83;18.93;97996.69;4995590;28;19918;-89
2022/12/29 06:05:26;;;;;;;;;;;;;;;22.45;19.15;97991.31;4996866;28;19980;-89
2022/12/29 06:07:52;;;;;;;;;;;;;;;22.46;18.76;97981.72;4980928;28;19926;-89
2022/12/29 06:10:18;;;;;;;;;;;;;;;22.44;19.03;97984.16;4978655;28;19928;-89
2022/12/29 06:12:44;;;;;;;;;;;;;;;22.06;19.06;97979.19;4996336;28;20340;-89
2022/12/29 06:15:10;;;;;;;;;;;;;;;21.74;19.47;97982.44;4979068;28;19921;-89
2022/12/29 06:17:36;;;;;;;;;;;;;;;21.91;19.34;97981.41;4996638;28;19944;-89
2022/12/29 06:20:02;;;;;;;;;;;;;;;22.33;19.06;97986.34;4996372;28;19918;-89
2022/12/29 06:22:28;;;;;;;;;;;;;;;22.46;18.95;97987.31;4996290;28;19925;-89
2022/12/29 06:24:54;;;;;;;;;;;;;;;22.49;18.90;97978.09;4988623;28;20032;-89
2022/12/29 06:27:20;;;;;;;;;;;;;;;22.09;19.42;97987.53;4996294;28;20400;-89
2022/12/29 06:29:46;;;;;;;;;;;;;;;22.44;19.41;97994.56;4996352;28;19922;-89
2022/12/29 06:32:12;;;;;;;;;;;;;;;22.60;19.30;97989.09;4963594;28;19922;-89
2022/12/29 06:34:38;;;;;;;;;;;;;;;22.96;18.86;97986.47;4976769;28;20302;-90
2022/12/29 06:37:05;;;;;;;;;;;;;;;22.61;18.80;97983.06;4976609;28;20302;-89
2022/12/29 06:39:31;;;;;;;;;;;;;;;22.48;19.15;97973.69;4976964;28;19944;-89
2022/12/29 06:41:57;;;;;;;;;;;;;;;22.79;19.32;97979.97;4977356;28;20391;-89
2022/12/29 06:44:23;;;;;;;;;;;;;;;23.05;18.81;97987.50;4976546;28;19923;-89
2022/12/29 06:46:49;;;;;;;;;;;;;;;22.87;19.48;97984.22;4976599;28;19933;-91
2022/12/29 06:49:16;;;;;;;;;;;;;;;23.09;19.01;97970.59;4976755;28;19918;-89
2022/12/29 06:51:42;;;;;;;;;;;;;;;23.25;18.96;97982.69;4976546;28;19918;-89
2022/12/29 06:54:08;;;;;;;;;;;;;;;23.55;18.57;97973.28;4985198;28;19925;-89
2022/12/29 06:56:34;;;;;;;;;;;;;;;23.32;18.79;97974.13;4995855;28;19972;-89
2022/12/29 06:59:00;;;;;;;;;;;;;;;23.20;19.12;97976.78;4978746;28;20378;-89
2022/12/29 07:01:27;;;;;;;;;;;;;;;23.09;19.28;97965.00;4976440;28;19922;-89
2022/12/29 07:03:53;;;;;;;;;;;;;;;22.82;19.07;97967.13;4976855;28;19918;-89
2022/12/29 07:06:19;;;;;;;;;;;;;;;22.30;19.75;97969.63;4975979;28;19917;-89
2022/12/29 07:08:45;;;;;;;;;;;;;;;22.41;19.78;97979.41;4976051;28;19922;-89
2022/12/29 07:11:11;;;;;;;;;;;;;;;22.31;19.85;97971.22;4994159;28;19918;-89
2022/12/29 07:13:37;;;;;;;;;;;;;;;22.59;20.06;97977.09;4995252;28;19930;-89
2022/12/29 07:16:07;;;;;;;;;;;;;;;22.95;19.50;97970.88;4985718;28;19918;-89
2022/12/29 07:18:33;;;;;;;;;;;;;;;23.70;19.02;97966.16;4976300;28;20012;-89
2022/12/29 07:20:59;;;;;;;;;;;;;;;23.56;19.35;97965.66;4975810;28;20000;-89
2022/12/29 07:23:25;;;;;;;;;;;;;;;23.59;18.71;97954.38;4976127;28;20397;-89
2022/12/29 07:26:05;;;;;;;;;;;;;;;23.30;19.43;97959.75;4991080;28;20009;-89
2022/12/29 07:28:32;;;;;;;;;;;;;;;22.76;19.42;97964.03;4995480;28;20009;-89
2022/12/29 07:30:58;;;;;;;;;;;;;;;22.26;20.32;97960.50;4995275;28;20389;-90
2022/12/29 07:33:24;;;;;;;;;;;;;;;22.00;20.50;97950.94;4975691;28;19972;-89
2022/12/29 07:35:50;;;;;;;;;;;;;;;22.12;20.24;97967.13;4975544;28;19922;-89
2022/12/29 07:38:16;;;;;;;;;;;;;;;22.66;19.83;97967.84;4976009;28;20279;-89
2022/12/29 07:40:42;;;;;;;;;;;;;;;23.13;19.66;97960.91;4975669;28;19918;-90
2022/12/29 07:43:08;;;;;;;;;;;;;;;23.28;19.37;97961.41;4975374;28;20466;-90
2022/12/29 07:45:34;;;;;;;;;;;;;;;23.46;19.00;97947.84;4975243;28;19973;-90
2022/12/29 07:48:02;;;;;;;;;;;;;;;24.01;19.00;97955.44;4975687;28;19962;-90
2022/12/29 07:50:28;;;;;;;;;;;;;;;24.34;18.47;97954.22;4964428;28;19922;-90
2022/12/29 07:52:54;;;;;;;;;;;;;;;24.57;18.97;97964.50;4975579;28;19918;-91
2022/12/29 07:55:20;;;;;;;;;;;;;;;24.71;18.32;97964.88;4978605;28;19940;-90
2022/12/29 07:57:46;;;;;;;;;;;;;;;24.64;18.08;97953.09;4987871;28;19914;-91
2022/12/29 08:00:12;;;;;;;;;;;;;;;24.53;17.82;97950.53;4975541;28;19923;-91
2022/12/29 08:02:38;;;;;;;;;;;;;;;24.52;18.83;97951.00;4975570;28;19965;-90
2022/12/29 08:05:05;;;;;;;;;;;;;;;24.04;18.98;97954.53;4976040;28;19914;-89
2022/12/29 08:07:31;;;;;;;;;;;;;;;23.09;20.29;97963.00;4981622;28;20024;-90
2022/12/29 08:09:57;;;;;;;;;;;;;;;23.01;19.47;97963.56;4994156;28;19968;-90
2022/12/29 08:12:23;;;;;;;;;;;;;;;23.36;19.84;97958.06;4994473;28;19924;-90
2022/12/29 08:14:49;;;;;;;;;;;;;;;23.16;19.68;97964.88;4994539;28;19929;-90
2022/12/29 08:17:15;;;;;;;;;;;;;;;23.78;19.36;97959.13;4994536;28;20429;-90
2022/12/29 08:19:42;;;;;;;;;;;;;;;23.98;18.91;97965.50;4994377;28;19964;-90
2022/12/29 08:22:08;;;;;;;;;;;;;;;24.29;19.02;97963.19;4993622;28;20362;-90
2022/12/29 08:24:34;;;;;;;;;;;;;;;24.39;19.42;97962.13;4993724;28;19918;-90
2022/12/29 08:27:00;;;;;;;;;;;;;;;23.69;19.26;97969.38;4994704;28;19929;-90
2022/12/29 08:29:26;;;;;;;;;;;;;;;23.96;19.09;97981.97;4994453;28;19925;-90
2022/12/29 08:31:52;;;;;;;;;;;;;;;24.13;18.99;97979.22;4986257;28;19918;-90
2022/12/29 08:34:18;;;;;;;;;;;;;;;24.18;19.26;97987.13;4975043;28;20000;-90
2022/12/29 08:36:44;;;;;;;;;;;;;;;24.63;18.54;97976.75;4989368;28;19922;-91
2022/12/29 08:39:11;;;;;;;;;;;;;;;24.85;18.79;97985.44;4992694;28;20413;-91
2022/12/29 08:41:37;;;;;;;;;;;;;;;25.29;19.24;97979.00;4974938;28;19944;-91
2022/12/29 08:44:03;;;;;;;;;;;;;;;25.62;18.86;97972.03;4975493;28;19923;-91
2022/12/29 08:46:29;;;;;;;;;;;;;;;25.90;18.72;97964.75;4974782;28;20445;-91
2022/12/29 08:48:55;;;;;;;;;;;;;;;26.11;18.52;97958.50;4974672;28;20386;-91
2022/12/29 08:51:21;;;;;;;;;;;;;;;25.57;18.74;97966.19;4975105;28;19954;-91
2022/12/29 08:53:47;;;;;;;;;;;;;;;24.88;19.66;97965.69;4974803;28;19961;-91
2022/12/29 08:56:13;;;;;;;;;;;;;;;24.73;20.21;97970.09;4976492;28;20349;-92
2022/12/29 08:58:39;;;;;;;;;;;;;;;24.69;20.48;97969.41;4978736;28;20301;-92
2022/12/29 09:01:05;;;;;;;;;;;;;;;24.62;20.14;97975.97;4978895;28;20267;-92
2022/12/29 09:03:32;;;;;;;;;;;;;;;24.88;19.38;97970.53;4978779;28;19922;-92
2022/12/29 09:05:58;;;;;;;;;;;;;;;25.26;19.63;97974.28;4978785;28;19919;-92
2022/12/29 09:08:24;;;;;;;;;;;;;;;25.38;19.28;97963.06;4994758;28;19922;-92
2022/12/29 09:10:50;;;;;;;;;;;;;;;25.69;19.13;97959.78;4998110;28;19917;-92
2022/12/29 09:13:16;;;;;;;;;;;;;;;25.92;19.23;97965.91;4995621;28;19933;-90
2022/12/29 09:15:42;;;;;;;;;;;;;;;26.17;19.23;97958.69;4975398;28;19924;-91
2022/12/29 09:18:08;;;;;;;;;;;;;;;26.44;19.33;97959.78;4997815;28;20400;-90
2022/12/29 09:20:34;;;;;;;;;;;;;;;26.48;18.93;97957.66;4997697;28;20428;-91
2022/12/29 09:23:01;;;;;;;;;;;;;;;25.92;19.30;97948.22;4997729;28;19918;-91
2022/12/29 09:25:27;;;;;;;;;;;;;;;25.92;19.30;97953.84;4997560;28;19918;-90
2022/12/29 09:27:53;;;;;;;;;;;;;;;26.22;19.57;97949.69;4997797;28;19918;-90
2022/12/29 09:30:20;;;;;;;;;;;;;;;25.99;18.98;97954.41;4995969;28;20404;-91
2022/12/29 09:32:47;;;;;;;;;;;;;;;25.62;19.14;97954.38;4994830;28;20350;-91
2022/12/29 09:35:13;;;;;;;;;;;;;;;25.50;19.13;97949.53;4996499;28;20001;-91
2022/12/29 09:37:40;;;;;;;;;;;;;;;25.49;19.39;97948.72;4989627;28;19926;-91
2022/12/29 09:40:07;;;;;;;;;;;;;;;26.16;19.37;97932.59;4996287;28;19918;-91
2022/12/29 09:42:50;;;;;;;;;;;;;;;26.49;19.43;97942.34;4997108;28;19918;-92
2022/12/29 09:45:19;;;;;;;;;;;;;;;26.73;19.35;97934.28;4997352;28;20103;-90
2022/12/29 09:47:45;;;;;;;;;;;;;;;26.67;19.08;97936.09;4996568;28;19918;-92
2022/12/29 09:50:11;;;;;;;;;;;;;;;26.42;19.75;97930.53;4978789;28;20302;-91
2022/12/29 09:52:42;;;;;;;;;;;;;;;25.88;20.66;97922.25;4977864;28;19922;-92
2022/12/29 09:55:10;;;;;;;;;;;;;;;26.09;20.25;97922.31;4977361;28;19918;-90
2022/12/29 09:57:48;;;;;;;;;;;;;;;25.25;20.93;97928.50;4978722;28;19918;-90
2022/12/29 10:00:16;;;;;;;;;;;;;;;25.61;19.98;97928.28;4989925;28;19952;-90
2022/12/29 10:02:44;;;;;;;;;;;;;;;25.58;20.97;97931.22;4997108;28;20294;-90
2022/12/29 10:05:24;;;;;;;;;;;;;;;26.35;19.41;97920.28;4986991;28;20390;-90
2022/12/29 10:08:02;;;;;;;;;;;;;;;26.66;19.50;97926.88;4976844;28;19982;-90
2022/12/29 10:10:31;;;;;;;;;;;;;;;27.14;19.08;97930.44;4977222;28;20012;-90
2022/12/29 10:12:57;;;;;;;;;;;;;;;27.06;19.06;97923.47;4977126;28;19926;-90
2022/12/29 10:15:33;;;;;;;;;;;;;;;27.15;18.96;97924.31;4977489;28;19925;-90
2022/12/29 10:18:18;;;;;;;;;;;;;;;26.99;18.88;97910.44;4977534;28;20286;-90
2022/12/29 10:20:47;;;;;;;;;;;;;;;27.70;18.60;97916.25;4977299;28;19918;-90
2022/12/29 10:23:19;;;;;;;;;;;;;;;27.45;18.75;97911.53;4984579;28;19918;-90
2022/12/29 10:25:45;;;;;;;;;;;;;;;27.06;18.69;97923.47;4977053;28;19964;-91
2022/12/29 10:28:21;;;;;;;;;;;;;;;27.36;19.05;97920.72;4993496;28;20293;-90
2022/12/29 10:30:49;;;;;;;;;;;;;;;26.65;21.27;97927.31;4979201;28;19941;-91
2022/12/29 10:33:18;;;;;;;;;;;;;;;26.17;20.11;97922.91;4977214;28;20017;-91
2022/12/29 10:35:45;;;;;;;;;;;;;;;27.41;19.51;97919.34;4977080;28;20449;-90
2022/12/29 10:38:27;;;;;;;;;;;;;;;27.72;19.21;97920.16;4988002;28;20004;-90
2022/12/29 10:40:56;;;;;;;;;;;;;;;27.93;18.57;97922.16;4976624;28;19964;-90
2022/12/29 10:43:26;;;;;;;;;;;;;;;27.28;19.13;97907.34;4976640;28;19926;-91
2022/12/29 10:46:01;;;;;;;;;;;;;;;28.08;18.31;97909.06;4976762;28;19922;-90
2022/12/29 10:48:31;;;;;;;;;;;;;;;28.54;18.74;97912.75;4977025;28;19922;-90
2022/12/29 10:50:58;;;;;;;;;;;;;;;28.13;18.15;97904.03;4976655;28;19957;-91
2022/12/29 10:53:30;;;;;;;;;;;;;;;28.59;18.66;97908.59;4976627;28;20357;-91
2022/12/29 10:55:58;;;;;;;;;;;;;;;29.04;18.48;97914.25;4977197;28;19918;-91
2022/12/29 10:58:25;;;;;;;;;;;;;;;29.44;18.46;97905.56;4995428;28;19918;-91
2022/12/29 11:00:53;;;;;;;;;;;;;;;29.78;17.99;97893.84;4985150;28;19964;-91
2022/12/29 11:03:38;;;;;;;;;;;;;;;29.98;17.79;97891.28;4959157;28;19953;-89
2022/12/29 11:06:04;;;;;;;;;;;;;;;30.23;17.95;97884.38;4976391;28;20001;-89
2022/12/29 11:08:34;;;;;;;;;;;;;;;30.36;18.08;97887.00;4976171;28;20386;-90
2022/12/29 11:11:02;;;;;;;;;;;;;;;30.44;17.75;97882.53;4976548;28;19925;-90
2022/12/29 11:13:29;;;;;;;;;;;;;;;29.99;18.14;97875.06;4983228;28;19926;-90
2022/12/29 11:15:55;;;;;;;;;;;;;;;30.33;17.93;97879.47;4976419;28;19919;-90
2022/12/29 11:18:26;;;;;;;;;;;;;;;30.42;17.74;97879.41;4975486;28;20302;-90
2022/12/29 11:20:59;;;;;;;;;;;;;;;30.54;17.71;97878.38;4976702;28;20334;-90
2022/12/29 11:23:28;;;;;;;;;;;;;;;30.54;18.00;97884.84;4976264;28;19918;-90
2022/12/29 11:26:08;;;;;;;;;;;;;;;30.60;17.59;97884.94;4976111;28;20389;-91
2022/12/29 11:28:34;;;;;;;;;;;;;;;29.95;18.13;97878.06;4975874;28;20346;-91
2022/12/29 11:31:01;;;;;;;;;;;;;;;30.15;18.23;97879.53;4976530;28;19918;-90
2022/12/29 11:33:28;;;;;;;;;;;;;;;30.19;18.01;97880.94;4976145;28;20346;-89
2022/12/29 11:36:06;;;;;;;;;;;;;;;30.03;18.87;97872.84;4980690;28;20010;-89
2022/12/29 11:38:40;;;;;;;;;;;;;;;29.61;18.06;97883.38;4995495;28;19914;-89
2022/12/29 11:41:10;;;;;;;;;;;;;;;29.39;17.80;97892.84;4993459;28;20005;-89
2022/12/29 11:43:37;;;;;;;;;;;;;;;28.51;18.91;97893.94;4995308;28;19937;-89
2022/12/29 11:46:04;;;;;;;;;;;;;;;28.75;18.55;97894.16;4994492;28;19921;-90
2022/12/29 11:48:38;;;;;;;;;;;;;;;28.04;18.44;97888.66;4975303;28;19983;-90
2022/12/29 11:51:04;;;;;;;;;;;;;;;27.74;19.65;97888.66;4958058;28;20291;-90
2022/12/29 11:53:43;;;;;;;;;;;;;;;28.57;18.81;97891.25;4975589;28;19925;-90
2022/12/29 11:56:16;;;;;;;;;;;;;;;28.78;19.30;97890.38;4975460;28;20000;-90
2022/12/29 11:58:43;;;;;;;;;;;;;;;29.24;18.35;97880.63;4972503;28;20290;-89
2022/12/29 12:01:30;;;;;;;;;;;;;;;29.51;18.44;97881.81;4975813;28;20286;-89
2022/12/29 12:04:01;;;;;;;;;;;;;;;29.30;18.02;97877.94;4983019;28;20068;-89
2022/12/29 12:06:29;;;;;;;;;;;;;;;29.25;18.46;97884.22;4995033;28;19918;-89
2022/12/29 12:08:58;;;;;;;;;;;;;;;29.65;18.15;97878.31;4994569;28;20400;-89
2022/12/29 12:11:26;;;;;;;;;;;;;;;29.69;18.62;97878.91;4993529;28;20297;-88
2022/12/29 12:13:52;;;;;;;;;;;;;;;29.41;18.81;97878.22;4994848;28;19926;-89
2022/12/29 12:16:22;;;;;;;;;;;;;;;29.77;19.16;97880.97;4994697;28;19926;-88
2022/12/29 12:18:51;;;;;;;;;;;;;;;29.98;18.21;97882.00;4994536;28;19918;-89
2022/12/29 12:21:36;;;;;;;;;;;;;;;29.93;18.32;97874.16;4983810;28;20017;-90
2022/12/29 12:24:05;;;;;;;;;;;;;;;30.10;18.78;97878.16;4974018;28;19969;-90
2022/12/29 12:26:38;;;;;;;;;;;;;;;29.89;19.17;97874.34;4978055;28;19972;-90
2022/12/29 12:29:14;;;;;;;;;;;;;;;29.86;18.91;97880.94;4994568;28;19918;-89
2022/12/29 12:31:46;;;;;;;;;;;;;;;29.63;18.35;97883.66;4994190;28;19918;-90
2022/12/29 12:34:20;;;;;;;;;;;;;;;29.84;18.75;97877.03;4994316;28;19917;-90
2022/12/29 12:37:02;;;;;;;;;;;;;;;29.85;19.24;97875.78;4994534;28;19918;-89
2022/12/29 12:39:31;;;;;;;;;;;;;;;29.81;19.32;97872.31;4983369;28;19918;-90
2022/12/29 12:42:07;;;;;;;;;;;;;;;29.84;19.06;97871.34;4994422;28;19921;-89
2022/12/29 12:44:45;;;;;;;;;;;;;;;29.85;18.78;97870.09;4995041;28;20008;-90
2022/12/29 12:47:31;;;;;;;;;;;;;;;29.76;18.33;97879.41;4994522;28;19926;-89
2022/12/29 12:50:00;;;;;;;;;;;;;;;29.22;19.09;97874.66;4977956;28;19926;-90
2022/12/29 12:52:35;;;;;;;;;;;;;;;29.39;18.84;97878.72;4995127;28;19918;-90
2022/12/29 12:55:18;;;;;;;;;;;;;;;29.62;19.05;97876.44;4985776;28;20337;-90
2022/12/29 12:57:59;;;;;;;;;;;;;;;29.45;18.83;97873.22;4982851;28;20444;-89
2022/12/29 13:00:27;;;;;;;;;;;;;;;29.79;18.95;97872.78;4991850;28;19925;-89
2022/12/29 13:03:12;;;;;;;;;;;;;;;29.99;19.71;97880.75;4980663;28;19950;-90
2022/12/29 13:06:02;;;;;;;;;;;;;;;29.97;19.01;97888.91;4975048;28;19926;-90
2022/12/29 13:08:46;;;;;;;;;;;;;;;29.49;19.13;97878.69;4974448;28;20030;-91
2022/12/29 13:11:31;;;;;;;;;;;;;;;29.33;19.12;97885.50;4975342;28;19926;-89
2022/12/29 13:14:06;;;;;;;;;;;;;;;29.07;18.85;97890.69;4974657;28;19922;-89
2022/12/29 13:16:42;;;;;;;;;;;;;;;28.84;19.18;97887.72;4974682;28;20373;-89
2022/12/29 13:19:08;;;;;;;;;;;;;;;28.47;19.69;97892.53;4974710;28;19972;-89
2022/12/29 13:21:40;;;;;;;;;;;;;;;28.62;19.48;97897.13;4974477;28;20358;-89
2022/12/29 13:24:15;;;;;;;;;;;;;;;29.11;19.07;97904.66;4974236;28;19972;-89
2022/12/29 13:26:50;;;;;;;;;;;;;;;28.84;19.45;97902.63;4974901;28;20281;-88
2022/12/29 13:29:55;;;;;;;;;;;;;;;29.06;19.95;97899.63;4984925;28;19930;-89
2022/12/29 13:32:30;;;;;;;;;;;;;;;29.42;19.50;97889.09;4933939;29;19974;-89
2022/12/29 13:35:02;;;;;;;;;;;;;;;29.15;19.13;97893.97;4933911;29;19946;-89